Time;durP1;ratioP1;P1;durP2;ratioP2;P2;SDS_P1;SDS_P2;PMS_P1;PMS_P2;Temp;Humidity;BMP_temperature;BMP_pressure;BME280_temperature;BME280_humidity;BME280_pressure;Samples;Min_cycle;Max_cycle;Signal;HPM_P1;HPM_P2
2022/02/21 00:01:48;;;;;;;0.50;0.33;;;;;;;8.85;95.05;97700.34;5018053;28;20355;-78
2022/02/21 00:04:16;;;;;;;0.30;0.30;;;;;;;8.89;94.97;97686.22;5018127;28;20230;-80
2022/02/21 00:06:43;;;;;;;0.70;0.43;;;;;;;8.94;94.26;97712.84;5012060;28;20237;-78
2022/02/21 00:09:10;;;;;;;0.40;0.30;;;;;;;8.95;94.52;97691.91;5009331;28;20249;-78
2022/02/21 00:11:36;;;;;;;0.20;0.20;;;;;;;9.08;92.20;97753.69;5017763;28;20203;-78
2022/02/21 00:14:03;;;;;;;1.33;0.40;;;;;;;9.14;92.02;97774.16;5012298;28;20196;-80
2022/02/21 00:16:29;;;;;;;0.30;0.30;;;;;;;9.20;91.54;97810.25;5009903;28;20217;-78
2022/02/21 00:18:56;;;;;;;0.63;0.40;;;;;;;9.13;92.08;97795.88;5017119;28;20214;-78
2022/02/21 00:21:24;;;;;;;1.37;0.43;;;;;;;9.12;93.58;97773.41;5006955;28;20662;-79
2022/02/21 00:23:50;;;;;;;0.97;0.30;;;;;;;9.07;93.40;97768.44;5012623;28;20304;-79
2022/02/21 00:26:18;;;;;;;1.50;0.50;;;;;;;9.08;93.96;97777.94;5003990;28;20236;-80
2022/02/21 00:28:45;;;;;;;0.30;0.30;;;;;;;9.02;94.23;97874.56;5002813;28;20218;-77
2022/02/21 00:31:11;;;;;;;6.87;1.50;;;;;;;6.96;93.59;98061.09;4997531;28;20210;-78
2022/02/21 00:33:38;;;;;;;5.77;1.40;;;;;;;4.95;96.50;97968.78;4999030;28;20214;-78
2022/02/21 00:36:06;;;;;;;3.80;0.60;;;;;;;4.87;98.84;97883.78;4999906;28;20233;-78
2022/02/21 00:38:33;;;;;;;4.00;0.47;;;;;;;4.98;100.00;97809.25;5000160;28;20209;-79
2022/02/21 00:55:20;;;;;;;0.30;0.10;;;;;;;6.09;95.13;97961.91;5059124;27;20577;-82
2022/02/21 00:57:46;;;;;;;0.40;0.40;;;;;;;6.07;95.93;97997.38;5070431;23;20210;-76
2022/02/21 01:00:13;;;;;;;0.77;0.20;;;;;;;6.00;95.88;97991.59;5049394;27;20206;-78
2022/02/21 01:02:39;;;;;;;0.37;0.30;;;;;;;6.02;95.95;97978.59;5064838;28;20261;-78
2022/02/21 01:05:07;;;;;;;0.50;0.30;;;;;;;6.00;95.91;97983.81;5067740;27;20264;-79
2022/02/21 01:07:34;;;;;;;0.20;0.20;;;;;;;6.05;96.07;97983.66;5060375;27;20197;-79
2022/02/21 01:10:00;;;;;;;0.20;0.20;;;;;;;6.05;96.39;97987.06;5060156;28;20200;-77
2022/02/21 01:12:28;;;;;;;1.03;0.27;;;;;;;6.05;97.17;97947.41;5067688;28;20890;-80
2022/02/21 01:14:54;;;;;;;1.50;0.30;;;;;;;6.06;98.07;97933.53;5066831;28;20209;-78
2022/02/21 01:17:22;;;;;;;0.40;0.20;;;;;;;6.11;98.13;97924.66;5067353;28;20238;-78
2022/02/21 01:19:48;;;;;;;0.90;0.40;;;;;;;6.15;96.04;97987.56;5067178;28;20264;-78
2022/02/21 01:22:15;;;;;;;0.47;0.27;;;;;;;6.11;93.83;98054.16;5067884;27;20206;-79
2022/02/21 01:24:41;;;;;;;0.20;0.20;;;;;;;6.07;94.70;98059.53;5066672;28;20227;-78
2022/02/21 01:27:08;;;;;;;0.30;0.30;;;;;;;6.03;93.33;98076.09;5067431;28;20201;-78
2022/02/21 01:29:36;;;;;;;1.20;0.30;;;;;;;6.10;91.63;98130.16;5067242;28;20237;-79
2022/02/21 01:32:02;;;;;;;0.73;0.30;;;;;;;6.03;91.98;98128.72;5067044;28;20212;-78
2022/02/21 01:34:29;;;;;;;0.70;0.30;;;;;;;6.03;92.99;98125.31;5067110;28;20208;-78
2022/02/21 01:36:55;;;;;;;0.50;0.30;;;;;;;6.03;92.22;98133.06;5060414;28;20207;-78
2022/02/21 01:39:22;;;;;;;1.23;0.30;;;;;;;6.08;90.46;98155.28;5058555;27;20219;-78
2022/02/21 01:41:48;;;;;;;0.20;0.20;;;;;;;6.04;91.83;98148.53;5067403;28;20256;-77
2022/02/21 01:44:15;;;;;;;0.60;0.20;;;;;;;6.03;92.75;98123.53;5066321;28;20254;-78
2022/02/21 01:46:43;;;;;;;0.53;0.30;;;;;;;6.00;93.04;98107.28;5066289;27;20203;-79
2022/02/21 01:49:12;;;;;;;0.47;0.30;;;;;;;6.00;95.23;98084.81;5066822;27;20228;-78
2022/02/21 01:51:39;;;;;;;0.47;0.40;;;;;;;5.92;95.21;98060.94;5066526;28;20218;-77
2022/02/21 01:54:07;;;;;;;1.40;0.33;;;;;;;5.75;96.39;98033.13;5066168;28;20327;-79
2022/02/21 01:56:35;;;;;;;1.30;0.30;;;;;;;5.70;97.44;98009.13;5052684;28;20203;-78
2022/02/21 01:59:01;;;;;;;0.70;0.50;;;;;;;5.73;97.37;98009.88;5052821;28;20714;-78
2022/02/21 02:01:28;;;;;;;0.70;0.43;;;;;;;5.70;97.00;98014.31;5052896;28;20261;-78
2022/02/21 02:03:56;;;;;;;1.43;0.53;;;;;;;5.65;97.25;98024.00;5052937;28;20231;-77
2022/02/21 02:06:22;;;;;;;1.07;0.60;;;;;;;5.58;96.85;98038.91;5047766;28;20258;-79
2022/02/21 02:08:49;;;;;;;0.70;0.50;;;;;;;5.58;97.03;98031.16;5043211;28;20640;-78
2022/02/21 02:11:16;;;;;;;1.17;0.70;;;;;;;5.56;97.85;98012.25;5053095;28;20253;-77
2022/02/21 02:13:42;;;;;;;1.47;0.60;;;;;;;5.53;96.80;98052.03;5052351;28;20254;-78
2022/02/21 02:16:09;;;;;;;1.57;0.70;;;;;;;5.61;95.17;98077.63;5052712;28;20233;-77
2022/02/21 02:18:35;;;;;;;1.03;0.70;;;;;;;5.65;93.87;98149.06;5053567;28;20221;-78
2022/02/21 02:21:03;;;;;;;1.10;0.60;;;;;;;5.65;92.67;98164.59;5052677;28;20211;-78
2022/02/21 02:23:30;;;;;;;1.07;0.50;;;;;;;5.71;89.49;98249.78;5053472;28;20261;-78
2022/02/21 02:25:57;;;;;;;1.40;0.57;;;;;;;5.68;89.93;98280.94;5053259;28;20208;-77
2022/02/21 02:28:25;;;;;;;3.63;0.67;;;;;;;5.70;88.40;98306.78;5053398;28;20236;-79
2022/02/21 02:30:51;;;;;;;1.10;0.80;;;;;;;5.68;88.52;98309.41;5053136;28;20207;-78
2022/02/21 02:33:17;;;;;;;1.53;0.50;;;;;;;5.53;89.50;98349.59;5053780;28;20235;-80
2022/02/21 02:35:44;;;;;;;0.40;0.30;;;;;;;5.23;91.02;98284.16;5052645;28;20261;-78
2022/02/21 02:38:10;;;;;;;1.10;0.50;;;;;;;5.04;92.36;98208.09;5041471;28;20219;-78
2022/02/21 02:40:38;;;;;;;2.90;0.70;;;;;;;5.02;92.78;98243.50;5050168;28;20547;-78
2022/02/21 02:43:04;;;;;;;1.33;0.60;;;;;;;4.98;90.91;98237.56;5053371;28;20210;-79
2022/02/21 02:45:30;;;;;;;1.90;0.50;;;;;;;4.95;90.29;98297.94;5053007;28;20219;-79
2022/02/21 02:47:57;;;;;;;0.83;0.60;;;;;;;4.91;89.86;98321.38;5053219;28;20280;-78
2022/02/21 02:50:23;;;;;;;1.23;0.73;;;;;;;4.89;91.49;98292.97;5055699;28;20606;-77
2022/02/21 02:52:50;;;;;;;2.80;0.80;;;;;;;4.71;92.66;98250.44;5060223;28;20639;-77
2022/02/21 02:55:16;;;;;;;0.97;0.60;;;;;;;4.67;93.59;98223.00;5058997;28;20206;-77
2022/02/21 02:57:44;;;;;;;3.17;0.70;;;;;;;4.48;93.64;98216.69;5053140;28;20204;-79
2022/02/21 03:00:13;;;;;;;1.43;0.40;;;;;;;4.31;93.56;98206.88;5052737;28;20271;-79
2022/02/21 03:02:39;;;;;;;1.47;0.47;;;;;;;4.16;94.36;98209.03;5052218;28;20203;-79
2022/02/21 03:05:06;;;;;;;1.40;0.70;;;;;;;4.14;94.70;98160.91;5051616;28;20229;-79
2022/02/21 03:07:32;;;;;;;2.77;0.77;;;;;;;4.21;94.62;98169.31;5043194;28;20243;-78
2022/02/21 03:09:59;;;;;;;1.53;0.67;;;;;;;4.20;94.19;98159.88;5043864;28;20250;-79
2022/02/21 03:12:25;;;;;;;1.13;1.00;;;;;;;4.34;91.61;98224.84;5051612;28;20264;-77
2022/02/21 03:14:53;;;;;;;1.87;0.90;;;;;;;4.42;91.20;98264.25;5051012;28;20202;-77
2022/02/21 03:17:19;;;;;;;1.67;0.60;;;;;;;4.41;91.47;98298.69;5051655;28;20260;-78
2022/02/21 03:19:46;;;;;;;3.67;0.80;;;;;;;4.43;91.54;98321.91;5051889;28;20225;-78
2022/02/21 03:22:12;;;;;;;2.47;0.60;;;;;;;4.15;90.61;98331.25;5051057;28;20211;-79
2022/02/21 03:24:39;;;;;;;5.50;1.20;;;;;;;3.87;91.73;98351.78;5051589;28;20222;-78
2022/02/21 03:27:05;;;;;;;3.37;1.13;;;;;;;3.56;93.80;98320.75;5051531;28;20675;-78
2022/02/21 03:29:31;;;;;;;3.63;0.90;;;;;;;3.32;96.02;98237.94;5051424;28;20232;-78
2022/02/21 03:31:59;;;;;;;2.07;0.97;;;;;;;3.38;96.30;98203.44;5051684;28;20210;-78
2022/02/21 03:34:26;;;;;;;2.70;0.90;;;;;;;3.44;94.76;98254.84;5050781;28;20201;-80
2022/02/21 03:36:52;;;;;;;3.37;1.00;;;;;;;3.37;93.51;98299.75;5044059;28;20748;-79
2022/02/21 03:39:18;;;;;;;5.87;1.30;;;;;;;3.32;93.18;98289.53;5042845;28;20240;-78
2022/02/21 03:41:45;;;;;;;6.70;1.67;;;;;;;3.30;92.97;98291.28;5051431;28;20210;-79
2022/02/21 03:44:13;;;;;;;3.97;1.00;;;;;;;3.23;93.83;98274.28;5050783;28;20900;-78
2022/02/21 03:46:41;;;;;;;4.63;1.30;;;;;;;3.30;92.99;98286.13;5051713;28;20257;-78
2022/02/21 03:49:09;;;;;;;6.97;1.57;;;;;;;3.31;92.92;98302.44;5051050;28;20251;-78
2022/02/21 03:51:35;;;;;;;5.33;2.07;;;;;;;3.31;92.33;98323.94;5051666;28;20214;-79
2022/02/21 03:54:02;;;;;;;6.93;1.83;;;;;;;3.34;92.01;98326.44;5051236;28;20203;-79
2022/02/21 03:56:28;;;;;;;7.00;1.70;;;;;;;3.43;91.47;98348.59;5051309;28;20210;-78
2022/02/21 03:58:54;;;;;;;5.17;1.47;;;;;;;3.53;89.88;98387.91;5050629;28;20241;-78
2022/02/21 04:01:21;;;;;;;4.37;1.93;;;;;;;3.49;89.99;98399.16;5050839;28;20206;-77
2022/02/21 04:03:47;;;;;;;7.00;1.80;;;;;;;3.53;89.72;98401.66;5050935;28;20238;-78
2022/02/21 04:06:15;;;;;;;6.00;1.70;;;;;;;3.63;90.59;98411.72;5045961;28;20206;-78
2022/02/21 04:08:42;;;;;;;3.73;1.53;;;;;;;3.67;89.73;98405.63;5040686;28;20226;-78
2022/02/21 04:11:08;;;;;;;3.50;1.10;;;;;;;3.65;88.55;98423.72;5051416;28;20221;-78
2022/02/21 04:13:34;;;;;;;5.60;1.47;;;;;;;3.60;87.46;98448.78;5051215;28;21058;-77
2022/02/21 04:16:01;;;;;;;8.10;2.00;;;;;;;3.56;89.33;98462.63;5050593;28;20212;-79
2022/02/21 04:18:27;;;;;;;4.50;1.43;;;;;;;3.50;90.15;98414.59;5050844;28;20299;-79
2022/02/21 04:20:54;;;;;;;5.63;2.07;;;;;;;3.43;91.54;98382.13;5050181;28;20228;-78
2022/02/21 04:23:21;;;;;;;4.57;1.53;;;;;;;3.50;89.93;98387.97;5050200;28;20250;-79
2022/02/21 04:25:48;;;;;;;5.33;2.20;;;;;;;3.61;87.78;98449.63;5050606;28;20227;-79
2022/02/21 04:28:17;;;;;;;4.77;1.17;;;;;;;3.60;87.68;98473.72;5050550;28;20278;-79
2022/02/21 04:30:43;;;;;;;2.60;1.20;;;;;;;3.61;86.83;98484.03;5050830;28;20208;-79
2022/02/21 04:33:10;;;;;;;5.93;1.00;;;;;;;3.64;86.08;98545.00;5050854;28;20626;-77
2022/02/21 04:35:36;;;;;;;13.83;2.37;;;;;;;3.56;86.27;98540.84;5050163;28;20211;-79
2022/02/21 04:38:03;;;;;;;5.23;1.47;;;;;;;3.56;85.12;98566.66;5039250;28;20218;-78
2022/02/21 04:40:31;;;;;;;7.27;1.50;;;;;;;3.55;84.91;98584.75;5046856;28;20204;-78
2022/02/21 04:42:58;;;;;;;5.47;1.50;;;;;;;3.55;84.44;98606.25;5050905;28;20201;-78
2022/02/21 04:45:25;;;;;;;8.53;1.67;;;;;;;3.60;83.82;98628.50;5049481;28;20596;-78
2022/02/21 04:47:52;;;;;;;6.10;2.27;;;;;;;3.53;84.91;98618.31;5051043;28;20228;-78
2022/02/21 04:50:22;;;;;;;3.67;1.73;;;;;;;3.47;86.61;98621.03;5050717;28;20258;-79
2022/02/21 04:52:48;;;;;;;4.73;1.83;;;;;;;3.41;87.87;98561.81;5049992;28;20213;-77
2022/02/21 04:55:15;;;;;;;5.30;1.80;;;;;;;3.26;89.34;98541.50;5050202;28;20205;-78
2022/02/21 04:57:43;;;;;;;5.10;1.80;;;;;;;3.22;90.43;98501.19;5050193;28;20201;-78
2022/02/21 05:00:14;;;;;;;3.67;1.43;;;;;;;3.18;87.47;98528.75;5050354;28;20201;-78
2022/02/21 05:02:40;;;;;;;6.23;1.30;;;;;;;3.15;88.20;98534.84;5050200;28;20246;-78
2022/02/21 05:05:10;;;;;;;3.10;1.20;;;;;;;3.12;85.10;98596.75;5050235;28;20221;-78
2022/02/21 05:07:36;;;;;;;3.87;0.87;;;;;;;3.04;85.90;98608.94;5042869;28;20716;-78
2022/02/21 05:10:03;;;;;;;3.83;1.40;;;;;;;3.06;85.55;98602.03;5042801;28;20640;-77
2022/02/21 05:12:30;;;;;;;3.20;0.90;;;;;;;3.04;85.55;98626.13;5050177;28;20206;-79
2022/02/21 05:14:57;;;;;;;7.33;1.13;;;;;;;3.00;86.52;98607.28;5050054;28;20205;-78
2022/02/21 05:17:24;;;;;;;4.50;1.37;;;;;;;2.98;87.51;98581.53;5050072;28;20733;-78
2022/02/21 05:19:50;;;;;;;3.57;1.50;;;;;;;2.87;88.54;98552.53;5050370;28;20226;-78
2022/02/21 05:38:03;;;;;;;5.40;1.53;;;;;;;3.19;84.28;98659.34;5108728;27;20588;-79
2022/02/21 05:40:29;;;;;;;4.27;1.63;;;;;;;3.22;83.60;98682.50;5089050;28;20209;-80
2022/02/21 05:42:56;;;;;;;5.67;1.73;;;;;;;3.24;83.38;98706.53;5084928;28;20199;-79
2022/02/21 05:45:22;;;;;;;8.20;1.90;;;;;;;3.35;82.41;98732.13;5093741;28;20208;-77
2022/02/21 05:47:48;;;;;;;6.03;1.50;;;;;;;3.44;83.08;98764.66;5074038;28;20225;-80
2022/02/21 05:50:15;;;;;;;3.23;0.97;;;;;;;3.21;85.36;98734.97;5090853;28;20201;-81
2022/02/21 05:52:41;;;;;;;1.23;0.60;;;;;;;2.75;87.08;98672.09;5094135;28;20208;-78
2022/02/21 05:55:18;;;;;;;3.97;0.90;;;;;;;2.33;90.48;98578.34;5098156;28;20200;-79
2022/02/21 05:57:46;;;;;;;3.73;1.03;;;;;;;2.32;90.78;98518.31;5093070;28;20219;-79
2022/02/21 06:00:13;;;;;;;3.57;1.30;;;;;;;2.62;89.60;98559.00;5093895;28;20232;-79
2022/02/21 06:02:40;;;;;;;2.70;1.37;;;;;;;2.86;86.85;98615.25;5093980;28;20207;-78
2022/02/21 06:05:07;;;;;;;3.03;1.27;;;;;;;2.97;84.72;98689.78;5095779;28;20257;-80
2022/02/21 06:07:33;;;;;;;4.20;1.60;;;;;;;3.06;83.32;98730.06;5072936;28;20256;-79
2022/02/21 06:10:00;;;;;;;4.00;1.40;;;;;;;3.01;83.61;98748.16;5063710;28;20263;-80
2022/02/21 06:12:27;;;;;;;4.33;2.20;;;;;;;3.01;83.20;98749.88;5062509;28;20195;-80
2022/02/21 06:14:54;;;;;;;6.33;1.37;;;;;;;2.90;83.15;98763.78;5064965;28;20203;-80
2022/02/21 06:17:20;;;;;;;2.20;1.00;;;;;;;2.91;81.91;98801.56;5068876;28;20295;-79
2022/02/21 06:19:47;;;;;;;4.43;1.20;;;;;;;2.92;82.34;98805.00;5069421;28;20619;-80
2022/02/21 06:22:13;;;;;;;4.90;1.50;;;;;;;2.90;81.42;98837.69;5060716;28;20199;-79
2022/02/21 06:24:40;;;;;;;2.27;1.00;;;;;;;2.82;81.62;98840.34;5065910;28;20262;-79
2022/02/21 06:27:06;;;;;;;3.63;0.90;;;;;;;2.89;80.95;98860.00;5064016;28;20291;-78
2022/02/21 06:29:34;;;;;;;2.73;1.10;;;;;;;2.84;81.10;98859.22;5067589;28;20223;-80
2022/02/21 06:32:00;;;;;;;5.57;1.60;;;;;;;2.86;82.52;98854.06;5065490;28;20194;-79
2022/02/21 06:34:27;;;;;;;2.63;1.00;;;;;;;2.82;81.79;98853.25;5065746;28;20250;-80
2022/02/21 06:36:53;;;;;;;3.67;1.20;;;;;;;2.90;82.88;98833.38;5061119;28;20233;-80
2022/02/21 06:39:20;;;;;;;1.80;1.10;;;;;;;2.93;82.89;98827.31;5051318;28;20202;-80
2022/02/21 06:41:47;;;;;;;4.40;1.53;;;;;;;2.92;83.47;98802.44;5048844;28;20198;-80
2022/02/21 06:44:13;;;;;;;4.93;1.60;;;;;;;2.88;84.64;98790.47;5050733;28;20201;-80
2022/02/21 06:46:41;;;;;;;4.83;1.20;;;;;;;2.80;84.25;98785.41;5052792;28;20748;-80
2022/02/21 06:49:08;;;;;;;3.83;1.80;;;;;;;2.74;85.01;98763.16;5064717;28;20206;-81
2022/02/21 06:51:35;;;;;;;4.20;1.47;;;;;;;2.74;86.25;98742.56;5052825;28;20256;-80
2022/02/21 06:54:02;;;;;;;2.80;1.10;;;;;;;2.78;85.70;98740.78;5050693;28;20300;-81
2022/02/21 06:56:28;;;;;;;6.17;1.37;;;;;;;2.78;83.73;98766.56;5052638;28;20222;-80
2022/02/21 06:58:55;;;;;;;3.73;1.47;;;;;;;2.80;82.69;98800.88;5053586;28;20247;-81
2022/02/21 07:01:21;;;;;;;6.77;1.90;;;;;;;2.84;81.60;98835.19;5051950;28;20199;-81
2022/02/21 07:03:50;;;;;;;7.30;4.00;;;;;;;2.83;81.42;98851.50;5052738;28;20206;-81
2022/02/21 07:06:16;;;;;;;5.60;1.93;;;;;;;2.78;81.77;98864.47;5054340;28;20632;-80
2022/02/21 07:08:43;;;;;;;8.53;3.27;;;;;;;2.84;81.18;98866.94;5050714;28;20198;-80
2022/02/21 07:11:10;;;;;;;5.33;1.90;;;;;;;2.94;81.44;98865.13;5051114;28;20625;-81
2022/02/21 07:13:36;;;;;;;5.77;1.50;;;;;;;2.91;81.80;98862.56;5048613;28;20203;-79
2022/02/21 07:16:03;;;;;;;4.47;1.50;;;;;;;2.96;82.39;98855.63;5051630;28;20247;-81
2022/02/21 07:18:30;;;;;;;7.97;1.60;;;;;;;3.02;81.73;98871.00;5063070;28;20203;-81
2022/02/21 07:20:58;;;;;;;2.80;1.80;;;;;;;3.09;81.10;98900.13;5049850;28;20194;-80
2022/02/21 07:23:24;;;;;;;4.97;1.37;;;;;;;3.06;82.05;98900.19;5050268;28;20203;-81
2022/02/21 07:25:50;;;;;;;5.23;1.50;;;;;;;3.03;81.72;98908.78;5049778;28;20202;-81
2022/02/21 07:28:17;;;;;;;6.37;2.53;;;;;;;3.00;80.60;98914.00;5049783;28;20272;-82
2022/02/21 07:30:44;;;;;;;4.87;1.67;;;;;;;3.04;81.25;98925.13;5049218;28;20239;-79
2022/02/21 07:33:10;;;;;;;4.03;1.40;;;;;;;2.99;80.88;98940.63;5046244;28;20234;-79
2022/02/21 07:35:37;;;;;;;3.87;1.17;;;;;;;3.09;81.48;98921.63;5048108;28;20206;-78
2022/02/21 07:38:05;;;;;;;3.97;1.30;;;;;;;3.00;80.30;98926.88;5047316;28;20228;-78
2022/02/21 07:40:32;;;;;;;8.13;1.80;;;;;;;3.08;81.73;98926.78;5045471;28;20241;-79
2022/02/21 07:42:58;;;;;;;5.33;1.40;;;;;;;3.13;82.22;98899.19;5048485;28;20285;-78
2022/02/21 07:45:26;;;;;;;8.20;2.07;;;;;;;3.12;81.84;98895.78;5047653;28;20228;-78
2022/02/21 07:47:55;;;;;;;5.80;1.77;;;;;;;3.15;81.01;98911.22;5055333;28;20251;-78
2022/02/21 07:50:22;;;;;;;6.10;1.70;;;;;;;3.15;80.96;98924.13;5049670;28;20209;-78
2022/02/21 07:52:49;;;;;;;6.17;1.93;;;;;;;3.23;80.50;98905.97;5045672;28;20201;-77
2022/02/21 07:55:18;;;;;;;7.73;1.93;;;;;;;3.30;80.14;98917.88;5044341;28;20256;-78
2022/02/21 07:57:46;;;;;;;7.93;2.63;;;;;;;3.35;80.06;98933.28;5044417;28;20295;-78
2022/02/21 08:00:15;;;;;;;8.17;2.10;;;;;;;3.39;79.65;98955.59;5043522;28;20205;-77
2022/02/21 08:02:42;;;;;;;7.03;2.40;;;;;;;3.40;78.10;98988.25;5041131;28;20210;-76
2022/02/21 08:05:09;;;;;;;6.73;1.83;;;;;;;3.43;77.89;98988.22;5049584;28;20206;-78
2022/02/21 08:07:37;;;;;;;6.67;2.13;;;;;;;3.42;77.76;98991.66;5051752;28;20283;-79
2022/02/21 08:10:05;;;;;;;5.13;1.47;;;;;;;3.54;79.15;98975.16;5046985;28;20201;-78
2022/02/21 08:12:33;;;;;;;5.93;1.73;;;;;;;3.46;77.60;98990.72;5048155;28;20227;-77
2022/02/21 08:14:59;;;;;;;5.30;2.63;;;;;;;3.50;78.80;98983.81;5046180;28;20222;-79
2022/02/21 08:17:26;;;;;;;6.00;2.50;;;;;;;3.56;79.02;98963.94;5051428;28;20227;-79
2022/02/21 08:19:53;;;;;;;6.93;3.27;;;;;;;3.65;78.94;98982.72;5057480;28;20199;-78
2022/02/21 08:22:20;;;;;;;6.57;1.83;;;;;;;3.67;78.92;98966.38;5048890;28;20208;-78
2022/02/21 08:24:46;;;;;;;7.00;2.23;;;;;;;3.61;77.65;99022.34;5044579;28;20260;-77
2022/02/21 08:27:12;;;;;;;7.00;2.40;;;;;;;3.61;78.27;99004.28;5046329;28;20226;-79
2022/02/21 08:29:40;;;;;;;5.67;2.70;;;;;;;3.62;78.88;98993.94;5052368;28;20233;-79
2022/02/21 08:32:08;;;;;;;4.57;2.00;;;;;;;3.66;78.42;99007.66;5043191;28;20207;-77
2022/02/21 08:34:34;;;;;;;5.63;1.57;;;;;;;3.64;77.88;99009.41;5046037;28;20211;-78
2022/02/21 08:37:01;;;;;;;7.93;2.47;;;;;;;3.62;78.10;99032.66;5034298;28;20225;-78
2022/02/21 08:39:27;;;;;;;6.40;2.07;;;;;;;3.73;78.09;99020.47;5035301;28;20199;-77
2022/02/21 08:41:53;;;;;;;9.47;3.37;;;;;;;3.71;77.71;99035.13;5032496;28;20198;-78
2022/02/21 08:44:20;;;;;;;6.90;2.80;;;;;;;3.72;76.61;99028.22;5035015;28;20195;-77
2022/02/21 08:46:48;;;;;;;13.80;2.80;;;;;;;3.78;77.94;99034.13;5037544;28;20233;-78
2022/02/21 08:49:15;;;;;;;7.90;2.70;;;;;;;3.83;77.53;99028.09;5046758;28;20217;-78
2022/02/21 08:51:41;;;;;;;8.83;2.40;;;;;;;3.84;76.85;99030.63;5042783;28;20203;-77
2022/02/21 08:54:09;;;;;;;5.13;2.67;;;;;;;3.87;76.64;99035.75;5043784;28;20201;-77
2022/02/21 08:56:36;;;;;;;6.90;2.30;;;;;;;3.90;76.02;99051.19;5044493;28;20225;-77
2022/02/21 08:59:03;;;;;;;5.17;2.50;;;;;;;3.93;76.09;99070.97;5042815;28;20202;-78
2022/02/21 09:01:30;;;;;;;4.63;2.60;;;;;;;3.96;76.44;99073.47;5042543;28;20619;-78
2022/02/21 09:03:57;;;;;;;8.00;3.53;;;;;;;3.96;75.90;99087.25;5044325;28;20685;-78
2022/02/21 09:06:24;;;;;;;4.73;2.70;;;;;;;4.00;76.54;99066.53;5042966;28;20226;-78
2022/02/21 09:08:50;;;;;;;6.53;2.70;;;;;;;4.04;76.96;99057.88;5042895;28;20198;-77
2022/02/21 09:11:17;;;;;;;7.10;2.43;;;;;;;4.08;76.09;99080.19;5044330;28;20673;-78
2022/02/21 09:13:43;;;;;;;6.83;3.03;;;;;;;4.08;76.88;99073.28;5042701;28;20203;-77
2022/02/21 09:16:10;;;;;;;5.20;2.40;;;;;;;4.05;75.37;99093.16;5042553;28;20208;-77
2022/02/21 09:18:36;;;;;;;6.00;3.10;;;;;;;4.10;76.36;99094.81;5047270;28;20259;-77
2022/02/21 09:21:04;;;;;;;5.67;2.60;;;;;;;4.10;76.28;99101.69;5043018;28;20302;-78
2022/02/21 09:23:30;;;;;;;7.43;2.33;;;;;;;4.04;75.73;99081.97;5043266;28;20207;-77
2022/02/21 09:25:57;;;;;;;7.60;2.57;;;;;;;4.01;75.50;99107.84;5043625;28;20928;-77
2022/02/21 09:28:23;;;;;;;8.37;2.67;;;;;;;4.03;75.74;99100.94;5041768;28;20240;-77
2022/02/21 09:30:53;;;;;;;3.63;2.63;;;;;;;4.11;75.75;99111.16;5043192;28;20199;-79
2022/02/21 09:33:19;;;;;;;5.13;2.10;;;;;;;4.12;75.36;99113.72;5044429;28;20196;-78
2022/02/21 09:35:46;;;;;;;8.57;3.80;;;;;;;4.18;75.50;99126.53;5041029;28;20289;-78
2022/02/21 09:38:13;;;;;;;7.00;2.70;;;;;;;4.14;74.57;99132.63;5043062;28;20280;-77
2022/02/21 09:40:41;;;;;;;10.30;2.90;;;;;;;4.21;74.18;99128.22;5041879;28;20204;-77
2022/02/21 09:43:08;;;;;;;7.43;2.77;;;;;;;4.24;75.11;99130.78;5043963;28;20225;-78
2022/02/21 09:45:35;;;;;;;7.30;2.97;;;;;;;4.20;73.42;99147.16;5043334;28;20234;-78
2022/02/21 09:48:03;;;;;;;6.83;2.57;;;;;;;4.28;73.98;99162.53;5046892;28;20296;-78
2022/02/21 09:50:29;;;;;;;9.03;2.80;;;;;;;4.20;72.82;99157.47;5045571;28;20230;-77
2022/02/21 09:53:01;;;;;;;4.67;2.70;;;;;;;4.25;73.77;99165.19;5042655;28;20277;-78
2022/02/21 09:55:29;;;;;;;6.50;2.43;;;;;;;4.40;74.49;99148.59;5043871;28;20242;-78
2022/02/21 09:57:56;;;;;;;5.60;2.47;;;;;;;4.42;72.62;99167.50;5044390;28;20218;-77
2022/02/21 10:00:23;;;;;;;6.87;3.20;;;;;;;4.48;72.64;99190.69;5042154;28;20246;-78
2022/02/21 10:02:50;;;;;;;5.77;2.20;;;;;;;4.48;71.70;99209.66;5043977;28;20202;-78
2022/02/21 10:05:18;;;;;;;7.97;2.57;;;;;;;4.46;70.83;99246.69;5046164;28;20250;-78
2022/02/21 10:07:46;;;;;;;9.97;2.10;;;;;;;4.55;71.29;99231.91;5044772;28;20223;-78
2022/02/21 10:10:15;;;;;;;5.97;2.00;;;;;;;4.51;70.89;99234.56;5044001;28;20656;-78
2022/02/21 10:12:50;;;;;;;4.73;2.10;;;;;;;4.41;69.66;99251.09;5045406;28;20198;-78
2022/02/21 10:15:19;;;;;;;5.87;1.63;;;;;;;4.41;70.01;99284.66;5048031;28;20290;-78
2022/02/21 10:17:46;;;;;;;8.60;2.77;;;;;;;4.37;70.02;99260.59;5048735;28;20247;-78
2022/02/21 10:20:14;;;;;;;7.33;2.43;;;;;;;4.41;70.83;99264.00;5048699;28;20271;-78
2022/02/21 10:22:40;;;;;;;5.20;1.90;;;;;;;4.34;70.22;99268.38;5048485;28;20652;-78
2022/02/21 10:25:19;;;;;;;7.90;2.17;;;;;;;4.39;70.88;99256.25;5047091;28;20617;-78
2022/02/21 10:27:46;;;;;;;6.83;2.77;;;;;;;4.44;69.67;99256.19;5046724;28;20228;-78
2022/02/21 10:30:17;;;;;;;9.03;2.07;;;;;;;4.57;69.94;99275.84;5047138;28;20676;-78
2022/02/21 10:32:47;;;;;;;6.13;2.77;;;;;;;4.72;71.19;99254.94;5036265;28;20668;-78
2022/02/21 10:35:16;;;;;;;6.07;2.23;;;;;;;4.72;68.46;99298.91;5037441;28;20559;-78
2022/02/21 10:37:44;;;;;;;8.17;2.57;;;;;;;4.62;68.86;99301.59;5036629;28;20718;-78
2022/02/21 10:40:14;;;;;;;3.93;3.03;;;;;;;4.75;70.05;99274.72;5037076;28;20202;-78
2022/02/21 10:42:42;;;;;;;8.07;2.40;;;;;;;4.85;70.82;99252.19;5037615;28;20198;-78
2022/02/21 10:45:14;;;;;;;5.93;2.77;;;;;;;4.78;69.61;99260.03;5036882;28;20195;-78
2022/02/21 10:47:59;;;;;;;8.17;2.70;;;;;;;4.75;68.18;99291.09;5046661;28;20223;-78
2022/02/21 10:50:25;;;;;;;8.03;3.80;;;;;;;4.72;69.17;99287.72;5048074;28;20627;-78
2022/02/21 10:52:52;;;;;;;4.80;2.40;;;;;;;4.80;70.29;99259.13;5047792;28;20668;-78
2022/02/21 10:55:18;;;;;;;5.13;2.37;;;;;;;4.73;69.03;99285.09;5049455;28;20313;-78
2022/02/21 10:57:47;;;;;;;4.70;2.60;;;;;;;4.74;69.47;99268.72;5047489;28;20228;-78
2022/02/21 11:00:15;;;;;;;11.10;2.83;;;;;;;4.74;69.08;99283.38;5045902;28;20196;-78
2022/02/21 11:02:44;;;;;;;11.50;2.70;;;;;;;4.79;69.44;99276.38;5047276;28;20200;-78
2022/02/21 11:05:11;;;;;;;8.47;2.50;;;;;;;4.80;69.30;99272.06;5046096;28;20197;-78
2022/02/21 11:07:41;;;;;;;6.70;3.10;;;;;;;4.83;69.96;99248.78;5045936;28;20747;-78
2022/02/21 11:10:09;;;;;;;4.40;1.80;;;;;;;4.82;69.58;99265.19;5050104;28;20236;-78
2022/02/21 11:12:39;;;;;;;9.60;3.10;;;;;;;4.85;69.26;99252.19;5046184;28;20211;-78
2022/02/21 11:15:07;;;;;;;5.13;3.17;;;;;;;4.84;67.83;99289.28;5063105;28;20187;-78
2022/02/21 11:17:36;;;;;;;6.27;2.13;;;;;;;4.88;68.11;99283.19;5059199;28;20226;-78
2022/02/21 11:20:04;;;;;;;6.20;2.43;;;;;;;4.96;69.33;99263.22;5054596;28;20286;-78
2022/02/21 11:22:32;;;;;;;12.77;3.53;;;;;;;5.05;69.32;99265.66;5047974;28;20613;-78
2022/02/21 11:25:06;;;;;;;5.90;2.97;;;;;;;5.11;68.22;99282.81;5047305;28;20256;-78
2022/02/21 11:27:41;;;;;;;4.50;2.03;;;;;;;5.16;68.56;99283.59;5043912;28;20234;-77
2022/02/21 11:30:13;;;;;;;4.13;2.07;;;;;;;5.16;68.20;99287.03;5049254;28;20202;-84
2022/02/21 11:32:49;;;;;;;4.77;2.20;;;;;;;5.22;68.41;99280.94;5047041;28;20698;-82
2022/02/21 11:55:52;;;;;;;4.60;2.17;;;;;;;4.86;74.81;99111.72;4974022;28;20354;-85
2022/02/21 12:02:04;;;;;;;4.40;1.53;;;;;;;4.78;78.81;98978.25;4994969;28;20241;-85
2022/02/21 12:04:53;;;;;;;2.87;1.23;;;;;;;4.74;79.10;98963.69;5030987;28;20225;-84
2022/02/21 12:07:32;;;;;;;3.37;1.53;;;;;;;4.70;79.76;98923.28;5043904;28;20266;-85
2022/02/21 12:10:21;;;;;;;6.83;1.83;;;;;;;4.74;80.17;98912.00;5068830;28;20197;-85
2022/02/21 12:13:02;;;;;;;3.97;1.40;;;;;;;4.68;80.52;98885.44;5052814;28;20206;-84
2022/02/21 12:15:31;;;;;;;2.20;1.20;;;;;;;4.51;81.35;98834.91;5053738;28;20226;-84
2022/02/21 12:18:26;;;;;;;2.17;1.40;;;;;;;4.44;82.36;98814.41;5040502;28;20251;-84
2022/02/21 12:21:08;;;;;;;2.50;1.57;;;;;;;4.24;84.29;98774.34;5038628;28;20210;-84
2022/02/21 12:23:35;;;;;;;5.20;1.50;;;;;;;4.20;85.72;98712.47;5038331;28;20599;-86
2022/02/21 12:26:24;;;;;;;4.33;1.60;;;;;;;4.14;86.68;98679.84;5038376;28;20600;-86
2022/02/21 12:29:10;;;;;;;3.30;1.70;;;;;;;4.04;86.73;98648.22;5035075;28;20224;-82
2022/02/21 12:31:37;;;;;;;2.87;1.70;;;;;;;4.00;87.29;98631.09;5037654;28;20209;-83
2022/02/21 12:34:04;;;;;;;3.10;1.47;;;;;;;3.95;88.33;98600.25;5037717;28;20555;-87
2022/02/21 12:36:38;;;;;;;2.53;1.50;;;;;;;3.83;88.05;98589.34;5037249;28;20706;-86
2022/02/21 12:39:07;;;;;;;2.97;1.63;;;;;;;3.65;87.14;98567.34;5060243;28;20530;-86